sensor_id;sensor_type;location;lat;lon;timestamp;temperature;humidity
32095;DHT22;18608;53.688;10.748;2023-12-29T00:06:44;9.80;99.90
32095;DHT22;18608;53.688;10.748;2023-12-29T00:11:36;9.80;99.90
32095;DHT22;18608;53.688;10.748;2023-12-29T00:23:47;9.70;99.90
32095;DHT22;18608;53.688;10.748;2023-12-29T00:26:16;9.80;99.90
32095;DHT22;18608;53.688;10.748;2023-12-29T00:38:27;9.10;99.90
32095;DHT22;18608;53.688;10.748;2023-12-29T01:05:16;8.70;99.90
32095;DHT22;18608;53.688;10.748;2023-12-29T01:22:23;8.60;99.90
32095;DHT22;18608;53.688;10.748;2023-12-29T01:29:40;8.70;99.90
32095;DHT22;18608;53.688;10.748;2023-12-29T01:37:01;8.80;99.90
32095;DHT22;18608;53.688;10.748;2023-12-29T01:41:55;8.80;99.90
32095;DHT22;18608;53.688;10.748;2023-12-29T01:44:22;8.90;99.90
32095;DHT22;18608;53.688;10.748;2023-12-29T01:46:53;9.00;99.90
32095;DHT22;18608;53.688;10.748;2023-12-29T01:49:20;9.00;99.90
32095;DHT22;18608;53.688;10.748;2023-12-29T01:51:57;9.00;99.90
32095;DHT22;18608;53.688;10.748;2023-12-29T01:54:25;9.00;99.90
32095;DHT22;18608;53.688;10.748;2023-12-29T01:56:54;9.00;99.90
32095;DHT22;18608;53.688;10.748;2023-12-29T01:59:25;8.90;99.90
32095;DHT22;18608;53.688;10.748;2023-12-29T02:11:38;8.70;99.90
32095;DHT22;18608;53.688;10.748;2023-12-29T02:17:21;8.70;99.90
32095;DHT22;18608;53.688;10.748;2023-12-29T02:24:16;8.80;99.90
32095;DHT22;18608;53.688;10.748;2023-12-29T02:26:46;9.00;99.90
32095;DHT22;18608;53.688;10.748;2023-12-29T02:29:14;9.00;99.90
32095;DHT22;18608;53.688;10.748;2023-12-29T02:31:45;9.00;99.90
32095;DHT22;18608;53.688;10.748;2023-12-29T02:34:14;9.10;99.90
32095;DHT22;18608;53.688;10.748;2023-12-29T02:39:09;9.20;99.90
32095;DHT22;18608;53.688;10.748;2023-12-29T02:41:37;9.10;99.90
32095;DHT22;18608;53.688;10.748;2023-12-29T02:46:29;9.20;99.90
32095;DHT22;18608;53.688;10.748;2023-12-29T02:51:21;9.20;99.90
32095;DHT22;18608;53.688;10.748;2023-12-29T02:58:40;9.30;99.90
32095;DHT22;18608;53.688;10.748;2023-12-29T03:15:42;9.30;99.90
32095;DHT22;18608;53.688;10.748;2023-12-29T03:37:37;9.30;99.90
32095;DHT22;18608;53.688;10.748;2023-12-29T03:42:29;9.40;99.90
32095;DHT22;18608;53.688;10.748;2023-12-29T03:47:21;9.20;99.90
32095;DHT22;18608;53.688;10.748;2023-12-29T04:19:04;9.20;99.90
32095;DHT22;18608;53.688;10.748;2023-12-29T05:07:44;7.50;99.90
32095;DHT22;18608;53.688;10.748;2023-12-29T05:32:05;6.70;99.90
32095;DHT22;18608;53.688;10.748;2023-12-29T05:34:31;6.80;99.90
32095;DHT22;18608;53.688;10.748;2023-12-29T05:44:15;6.80;99.90
32095;DHT22;18608;53.688;10.748;2023-12-29T05:51:33;6.80;99.90
32095;DHT22;18608;53.688;10.748;2023-12-29T06:01:17;6.90;99.90
32095;DHT22;18608;53.688;10.748;2023-12-29T06:03:43;6.80;99.90
32095;DHT22;18608;53.688;10.748;2023-12-29T06:08:35;6.80;99.90
32095;DHT22;18608;53.688;10.748;2023-12-29T06:13:27;6.90;99.90
32095;DHT22;18608;53.688;10.748;2023-12-29T06:28:07;6.90;99.90
32095;DHT22;18608;53.688;10.748;2023-12-29T06:30:33;7.00;99.90
32095;DHT22;18608;53.688;10.748;2023-12-29T07:09:38;7.00;99.90
32095;DHT22;18608;53.688;10.748;2023-12-29T07:51:06;7.20;99.90
32095;DHT22;18608;53.688;10.748;2023-12-29T08:10:33;7.40;99.90
32095;DHT22;18608;53.688;10.748;2023-12-29T08:17:51;7.40;99.90
32095;DHT22;18608;53.688;10.748;2023-12-29T08:20:17;7.30;99.90
32095;DHT22;18608;53.688;10.748;2023-12-29T08:22:43;7.40;99.90
32095;DHT22;18608;53.688;10.748;2023-12-29T08:39:48;7.60;99.90
32095;DHT22;18608;53.688;10.748;2023-12-29T08:42:14;7.60;99.90
32095;DHT22;18608;53.688;10.748;2023-12-29T08:49:38;7.50;99.90
32095;DHT22;18608;53.688;10.748;2023-12-29T09:06:40;8.10;99.90
32095;DHT22;18608;53.688;10.748;2023-12-29T09:09:06;8.20;99.90
32095;DHT22;18608;53.688;10.748;2023-12-29T09:23:41;8.20;99.90
32095;DHT22;18608;53.688;10.748;2023-12-29T09:33:26;8.40;99.90
32095;DHT22;18608;53.688;10.748;2023-12-29T09:38:18;8.50;99.90
32095;DHT22;18608;53.688;10.748;2023-12-29T09:40:44;8.40;99.90
32095;DHT22;18608;53.688;10.748;2023-12-29T09:45:37;7.80;99.90
32095;DHT22;18608;53.688;10.748;2023-12-29T09:48:07;7.20;99.90
32095;DHT22;18608;53.688;10.748;2023-12-29T09:53:00;7.10;99.90
32095;DHT22;18608;53.688;10.748;2023-12-29T10:00:20;7.00;99.90
32095;DHT22;18608;53.688;10.748;2023-12-29T10:05:12;7.10;99.90
32095;DHT22;18608;53.688;10.748;2023-12-29T10:07:39;7.10;99.90
32095;DHT22;18608;53.688;10.748;2023-12-29T10:10:06;7.10;99.90
32095;DHT22;18608;53.688;10.748;2023-12-29T10:15:19;7.00;99.90
32095;DHT22;18608;53.688;10.748;2023-12-29T10:18:19;7.00;99.90
32095;DHT22;18608;53.688;10.748;2023-12-29T10:23:38;6.90;99.90
32095;DHT22;18608;53.688;10.748;2023-12-29T10:26:07;6.90;99.90
32095;DHT22;18608;53.688;10.748;2023-12-29T10:31:02;6.90;99.90
32095;DHT22;18608;53.688;10.748;2023-12-29T10:36:03;6.90;99.90
32095;DHT22;18608;53.688;10.748;2023-12-29T10:38:30;6.90;99.90
32095;DHT22;18608;53.688;10.748;2023-12-29T10:41:13;7.10;99.90
32095;DHT22;18608;53.688;10.748;2023-12-29T10:46:09;7.20;99.90
32095;DHT22;18608;53.688;10.748;2023-12-29T10:51:02;7.20;99.90
32095;DHT22;18608;53.688;10.748;2023-12-29T10:53:34;7.50;99.90
32095;DHT22;18608;53.688;10.748;2023-12-29T10:58:27;7.30;99.90
32095;DHT22;18608;53.688;10.748;2023-12-29T11:00:55;7.30;99.90
32095;DHT22;18608;53.688;10.748;2023-12-29T11:03:21;7.50;99.90
32095;DHT22;18608;53.688;10.748;2023-12-29T11:08:18;7.40;99.90
32095;DHT22;18608;53.688;10.748;2023-12-29T11:10:44;7.40;99.90
32095;DHT22;18608;53.688;10.748;2023-12-29T11:15:43;7.40;99.90
32095;DHT22;18608;53.688;10.748;2023-12-29T11:18:14;7.50;99.90
32095;DHT22;18608;53.688;10.748;2023-12-29T11:20:41;7.60;99.90
32095;DHT22;18608;53.688;10.748;2023-12-29T11:23:09;7.70;99.90
32095;DHT22;18608;53.688;10.748;2023-12-29T11:32:59;7.50;99.90
32095;DHT22;18608;53.688;10.748;2023-12-29T11:40:44;7.50;99.90
32095;DHT22;18608;53.688;10.748;2023-12-29T11:43:17;7.50;99.90
32095;DHT22;18608;53.688;10.748;2023-12-29T11:45:43;7.60;99.90
32095;DHT22;18608;53.688;10.748;2023-12-29T11:48:10;7.70;99.90
32095;DHT22;18608;53.688;10.748;2023-12-29T11:50:38;7.80;99.90
32095;DHT22;18608;53.688;10.748;2023-12-29T11:53:06;8.00;99.90
32095;DHT22;18608;53.688;10.748;2023-12-29T11:55:36;7.90;99.90
32095;DHT22;18608;53.688;10.748;2023-12-29T11:58:03;7.90;99.90
32095;DHT22;18608;53.688;10.748;2023-12-29T12:00:43;7.80;99.90
32095;DHT22;18608;53.688;10.748;2023-12-29T12:03:30;7.90;99.90
32095;DHT22;18608;53.688;10.748;2023-12-29T12:08:35;7.80;99.90
32095;DHT22;18608;53.688;10.748;2023-12-29T12:13:55;7.70;99.90
32095;DHT22;18608;53.688;10.748;2023-12-29T12:19:12;7.70;99.90
32095;DHT22;18608;53.688;10.748;2023-12-29T12:24:04;7.80;99.90
32095;DHT22;18608;53.688;10.748;2023-12-29T12:26:31;7.90;99.90
32095;DHT22;18608;53.688;10.748;2023-12-29T12:31:23;8.00;99.90
32095;DHT22;18608;53.688;10.748;2023-12-29T12:33:55;8.00;99.90
32095;DHT22;18608;53.688;10.748;2023-12-29T12:38:57;8.10;99.90
32095;DHT22;18608;53.688;10.748;2023-12-29T12:41:25;8.10;99.90
32095;DHT22;18608;53.688;10.748;2023-12-29T12:46:34;8.20;99.90
32095;DHT22;18608;53.688;10.748;2023-12-29T12:49:01;8.10;99.90
32095;DHT22;18608;53.688;10.748;2023-12-29T12:53:54;8.00;99.90
32095;DHT22;18608;53.688;10.748;2023-12-29T13:01:12;8.40;99.90
32095;DHT22;18608;53.688;10.748;2023-12-29T13:03:39;8.70;99.90
32095;DHT22;18608;53.688;10.748;2023-12-29T13:06:05;8.40;99.90
32095;DHT22;18608;53.688;10.748;2023-12-29T13:08:33;8.40;99.90
32095;DHT22;18608;53.688;10.748;2023-12-29T13:10:59;8.50;99.90
32095;DHT22;18608;53.688;10.748;2023-12-29T13:13:38;8.50;99.90
32095;DHT22;18608;53.688;10.748;2023-12-29T13:23:27;8.40;99.90
32095;DHT22;18608;53.688;10.748;2023-12-29T13:26:08;8.40;99.90
32095;DHT22;18608;53.688;10.748;2023-12-29T13:28:35;8.30;99.90
32095;DHT22;18608;53.688;10.748;2023-12-29T13:31:02;8.30;99.90
32095;DHT22;18608;53.688;10.748;2023-12-29T13:36:09;8.30;99.90
32095;DHT22;18608;53.688;10.748;2023-12-29T13:38:43;8.40;99.90
32095;DHT22;18608;53.688;10.748;2023-12-29T13:41:14;8.40;99.90
32095;DHT22;18608;53.688;10.748;2023-12-29T13:43:42;8.30;99.90
32095;DHT22;18608;53.688;10.748;2023-12-29T13:46:10;8.40;99.90
32095;DHT22;18608;53.688;10.748;2023-12-29T13:48:36;8.40;99.90
32095;DHT22;18608;53.688;10.748;2023-12-29T13:51:02;8.50;99.90
32095;DHT22;18608;53.688;10.748;2023-12-29T13:56:09;8.30;99.90
32095;DHT22;18608;53.688;10.748;2023-12-29T13:58:38;8.30;99.90
32095;DHT22;18608;53.688;10.748;2023-12-29T14:01:07;8.20;99.90
32095;DHT22;18608;53.688;10.748;2023-12-29T14:04:03;8.20;99.90
32095;DHT22;18608;53.688;10.748;2023-12-29T14:16:22;8.00;99.90
32095;DHT22;18608;53.688;10.748;2023-12-29T14:18:57;7.90;99.90
32095;DHT22;18608;53.688;10.748;2023-12-29T14:21:31;8.00;99.90
32095;DHT22;18608;53.688;10.748;2023-12-29T14:26:40;7.80;99.90
32095;DHT22;18608;53.688;10.748;2023-12-29T14:29:10;7.70;99.90
32095;DHT22;18608;53.688;10.748;2023-12-29T14:34:04;7.50;99.90
32095;DHT22;18608;53.688;10.748;2023-12-29T14:36:31;7.50;99.90
32095;DHT22;18608;53.688;10.748;2023-12-29T14:41:23;7.60;99.90
32095;DHT22;18608;53.688;10.748;2023-12-29T14:48:41;7.30;99.90
32095;DHT22;18608;53.688;10.748;2023-12-29T14:51:07;7.40;99.90
32095;DHT22;18608;53.688;10.748;2023-12-29T14:58:25;7.30;99.90
32095;DHT22;18608;53.688;10.748;2023-12-29T15:08:12;7.40;99.90
32095;DHT22;18608;53.688;10.748;2023-12-29T15:10:37;7.20;99.90
32095;DHT22;18608;53.688;10.748;2023-12-29T15:13:03;7.30;99.90
32095;DHT22;18608;53.688;10.748;2023-12-29T15:22:48;7.50;99.90
32095;DHT22;18608;53.688;10.748;2023-12-29T15:25:15;7.20;99.90
32095;DHT22;18608;53.688;10.748;2023-12-29T15:30:08;7.30;99.90
32095;DHT22;18608;53.688;10.748;2023-12-29T15:47:10;7.30;99.90
32095;DHT22;18608;53.688;10.748;2023-12-29T15:49:39;7.20;99.90
32095;DHT22;18608;53.688;10.748;2023-12-29T15:56:58;7.20;99.90
32095;DHT22;18608;53.688;10.748;2023-12-29T16:01:51;7.30;99.90
32095;DHT22;18608;53.688;10.748;2023-12-29T16:09:09;7.30;99.90
32095;DHT22;18608;53.688;10.748;2023-12-29T16:19:01;7.40;99.90
32095;DHT22;18608;53.688;10.748;2023-12-29T16:31:13;7.40;99.90
32095;DHT22;18608;53.688;10.748;2023-12-29T16:33:39;7.50;99.90
32095;DHT22;18608;53.688;10.748;2023-12-29T16:36:14;7.50;99.90
32095;DHT22;18608;53.688;10.748;2023-12-29T16:38:50;7.60;99.90
32095;DHT22;18608;53.688;10.748;2023-12-29T16:41:18;7.60;99.90
32095;DHT22;18608;53.688;10.748;2023-12-29T16:48:36;7.70;99.90
32095;DHT22;18608;53.688;10.748;2023-12-29T17:00:50;7.80;99.90
32095;DHT22;18608;53.688;10.748;2023-12-29T17:03:18;7.70;99.90
32095;DHT22;18608;53.688;10.748;2023-12-29T17:05:45;7.90;99.90
32095;DHT22;18608;53.688;10.748;2023-12-29T17:10:37;7.80;99.90
32095;DHT22;18608;53.688;10.748;2023-12-29T17:37:25;7.70;99.90
32095;DHT22;18608;53.688;10.748;2023-12-29T18:01:50;7.70;99.90
32095;DHT22;18608;53.688;10.748;2023-12-29T18:11:39;7.70;99.90
32095;DHT22;18608;53.688;10.748;2023-12-29T18:14:05;7.80;99.90
32095;DHT22;18608;53.688;10.748;2023-12-29T18:16:31;7.70;99.90
32095;DHT22;18608;53.688;10.748;2023-12-29T18:19:00;7.80;99.90
32095;DHT22;18608;53.688;10.748;2023-12-29T18:33:37;7.70;99.90
32095;DHT22;18608;53.688;10.748;2023-12-29T18:36:07;7.60;99.90
32095;DHT22;18608;53.688;10.748;2023-12-29T18:41:06;7.60;99.90
32095;DHT22;18608;53.688;10.748;2023-12-29T18:43:33;7.70;99.90
32095;DHT22;18608;53.688;10.748;2023-12-29T18:46:13;7.60;99.90
32095;DHT22;18608;53.688;10.748;2023-12-29T18:53:33;7.60;99.90
32095;DHT22;18608;53.688;10.748;2023-12-29T18:56:04;7.60;99.90
32095;DHT22;18608;53.688;10.748;2023-12-29T19:00:56;7.50;99.90
32095;DHT22;18608;53.688;10.748;2023-12-29T19:03:31;7.40;99.90
32095;DHT22;18608;53.688;10.748;2023-12-29T19:05:58;7.40;99.90
32095;DHT22;18608;53.688;10.748;2023-12-29T19:10:51;7.30;99.90
32095;DHT22;18608;53.688;10.748;2023-12-29T19:13:16;7.40;99.90
32095;DHT22;18608;53.688;10.748;2023-12-29T19:23:00;7.50;99.90
32095;DHT22;18608;53.688;10.748;2023-12-29T19:40:09;7.60;99.90
32095;DHT22;18608;53.688;10.748;2023-12-29T19:42:35;7.60;99.90
32095;DHT22;18608;53.688;10.748;2023-12-29T19:49:53;7.90;99.90
32095;DHT22;18608;53.688;10.748;2023-12-29T19:52:18;7.60;99.90
32095;DHT22;18608;53.688;10.748;2023-12-29T19:54:52;7.50;99.90
32095;DHT22;18608;53.688;10.748;2023-12-29T19:57:18;7.50;99.90
32095;DHT22;18608;53.688;10.748;2023-12-29T20:02:12;7.40;99.90
32095;DHT22;18608;53.688;10.748;2023-12-29T20:07:04;7.40;99.90
32095;DHT22;18608;53.688;10.748;2023-12-29T20:14:24;7.50;99.90
32095;DHT22;18608;53.688;10.748;2023-12-29T20:21:42;7.50;99.90
32095;DHT22;18608;53.688;10.748;2023-12-29T20:26:35;7.50;99.90
32095;DHT22;18608;53.688;10.748;2023-12-29T20:31:28;7.50;99.90
32095;DHT22;18608;53.688;10.748;2023-12-29T20:33:55;7.50;99.90
32095;DHT22;18608;53.688;10.748;2023-12-29T20:36:21;7.40;99.90
32095;DHT22;18608;53.688;10.748;2023-12-29T20:38:48;7.40;99.90
32095;DHT22;18608;53.688;10.748;2023-12-29T20:41:21;7.40;99.90
32095;DHT22;18608;53.688;10.748;2023-12-29T20:43:47;7.50;99.90
32095;DHT22;18608;53.688;10.748;2023-12-29T20:53:36;7.40;99.90
32095;DHT22;18608;53.688;10.748;2023-12-29T20:56:02;7.50;99.90
32095;DHT22;18608;53.688;10.748;2023-12-29T20:58:28;7.40;99.90
32095;DHT22;18608;53.688;10.748;2023-12-29T21:00:53;7.40;99.90
32095;DHT22;18608;53.688;10.748;2023-12-29T21:03:19;7.50;99.90
32095;DHT22;18608;53.688;10.748;2023-12-29T21:08:11;7.40;99.90
32095;DHT22;18608;53.688;10.748;2023-12-29T21:13:03;7.30;99.90
32095;DHT22;18608;53.688;10.748;2023-12-29T21:15:29;7.30;99.90
32095;DHT22;18608;53.688;10.748;2023-12-29T21:25:14;7.10;99.90
32095;DHT22;18608;53.688;10.748;2023-12-29T21:39:55;6.80;99.90
32095;DHT22;18608;53.688;10.748;2023-12-29T21:44:47;6.80;99.90
32095;DHT22;18608;53.688;10.748;2023-12-29T21:52:07;6.60;99.90
32095;DHT22;18608;53.688;10.748;2023-12-29T21:54:34;6.60;99.90
32095;DHT22;18608;53.688;10.748;2023-12-29T21:57:01;6.50;99.90
32095;DHT22;18608;53.688;10.748;2023-12-29T22:06:49;6.40;99.90
32095;DHT22;18608;53.688;10.748;2023-12-29T22:11:44;6.30;99.90
32095;DHT22;18608;53.688;10.748;2023-12-29T22:16:35;6.20;99.90
32095;DHT22;18608;53.688;10.748;2023-12-29T22:28:48;6.00;99.90
32095;DHT22;18608;53.688;10.748;2023-12-29T22:31:15;6.00;99.90
32095;DHT22;18608;53.688;10.748;2023-12-29T22:33:41;5.90;99.90
32095;DHT22;18608;53.688;10.748;2023-12-29T22:36:15;5.90;99.90
32095;DHT22;18608;53.688;10.748;2023-12-29T22:41:08;5.90;99.90
32095;DHT22;18608;53.688;10.748;2023-12-29T22:43:37;5.90;99.90
32095;DHT22;18608;53.688;10.748;2023-12-29T22:46:03;5.90;99.90
32095;DHT22;18608;53.688;10.748;2023-12-29T22:48:29;5.80;99.90
32095;DHT22;18608;53.688;10.748;2023-12-29T22:50:59;5.80;99.90
32095;DHT22;18608;53.688;10.748;2023-12-29T22:53:25;5.80;99.90
32095;DHT22;18608;53.688;10.748;2023-12-29T22:58:20;5.80;99.90
32095;DHT22;18608;53.688;10.748;2023-12-29T23:03:13;5.80;99.90
32095;DHT22;18608;53.688;10.748;2023-12-29T23:05:38;5.80;99.90
32095;DHT22;18608;53.688;10.748;2023-12-29T23:15:22;5.90;99.90
32095;DHT22;18608;53.688;10.748;2023-12-29T23:20:14;6.00;99.90
32095;DHT22;18608;53.688;10.748;2023-12-29T23:27:33;6.10;99.90
32095;DHT22;18608;53.688;10.748;2023-12-29T23:39:43;6.10;99.90
32095;DHT22;18608;53.688;10.748;2023-12-29T23:44:35;6.10;99.90
32095;DHT22;18608;53.688;10.748;2023-12-29T23:49:28;5.90;99.90
32095;DHT22;18608;53.688;10.748;2023-12-29T23:51:54;6.00;99.90
32095;DHT22;18608;53.688;10.748;2023-12-29T23:54:19;6.00;99.90
32095;DHT22;18608;53.688;10.748;2023-12-29T23:56:45;5.90;99.90
